sensor_id;sensor_type;location;lat;lon;timestamp;pressure;altitude;pressure_sealevel;temperature;humidity
34674;BME280;20879;55.668;37.858;2023-04-01T00:00:14;98383.34;;;1.67;98.44
34674;BME280;20879;55.668;37.858;2023-04-01T00:02:45;98382.47;;;1.68;98.77
34674;BME280;20879;55.668;37.858;2023-04-01T00:05:15;98378.25;;;1.63;98.74
34674;BME280;20879;55.668;37.858;2023-04-01T00:07:45;98378.25;;;1.69;98.76
34674;BME280;20879;55.668;37.858;2023-04-01T00:10:14;98379.09;;;1.66;98.25
34674;BME280;20879;55.668;37.858;2023-04-01T00:12:48;98368.03;;;1.60;98.65
34674;BME280;20879;55.668;37.858;2023-04-01T00:15:18;98379.09;;;1.60;98.63
34674;BME280;20879;55.668;37.858;2023-04-01T00:17:49;98377.38;;;1.59;98.43
34674;BME280;20879;55.668;37.858;2023-04-01T00:20:19;98370.56;;;1.56;98.55
34674;BME280;20879;55.668;37.858;2023-04-01T00:22:48;98373.13;;;1.58;98.37
34674;BME280;20879;55.668;37.858;2023-04-01T00:25:18;98370.56;;;1.55;98.04
34674;BME280;20879;55.668;37.858;2023-04-01T00:27:47;98353.56;;;1.45;98.12
34674;BME280;20879;55.668;37.858;2023-04-01T00:30:17;98377.38;;;1.56;98.00
34674;BME280;20879;55.668;37.858;2023-04-01T00:32:46;98377.38;;;1.56;97.99
34674;BME280;20879;55.668;37.858;2023-04-01T00:35:18;98373.13;;;1.55;98.39
34674;BME280;20879;55.668;37.858;2023-04-01T00:37:47;98375.69;;;1.58;98.07
34674;BME280;20879;55.668;37.858;2023-04-01T00:40:25;98371.44;;;1.62;98.46
34674;BME280;20879;55.668;37.858;2023-04-01T00:42:55;98365.50;;;1.61;98.09
34674;BME280;20879;55.668;37.858;2023-04-01T00:45:28;98352.72;;;1.60;98.57
34674;BME280;20879;55.668;37.858;2023-04-01T00:48:07;98363.75;;;1.69;97.96
34674;BME280;20879;55.668;37.858;2023-04-01T00:50:43;98368.03;;;1.72;98.45
34674;BME280;20879;55.668;37.858;2023-04-01T00:53:14;98359.53;;;1.74;98.41
34674;BME280;20879;55.668;37.858;2023-04-01T00:55:52;98364.59;;;1.68;97.74
34674;BME280;20879;55.668;37.858;2023-04-01T00:58:25;98347.63;;;1.46;97.91
34674;BME280;20879;55.668;37.858;2023-04-01T01:01:03;98370.56;;;1.56;98.08
34674;BME280;20879;55.668;37.858;2023-04-01T01:03:33;98369.72;;;1.62;98.20
34674;BME280;20879;55.668;37.858;2023-04-01T01:06:21;98368.88;;;1.66;98.06
34674;BME280;20879;55.668;37.858;2023-04-01T01:09:11;98373.97;;;1.72;98.30
34674;BME280;20879;55.668;37.858;2023-04-01T01:11:47;98371.41;;;1.71;97.95
34674;BME280;20879;55.668;37.858;2023-04-01T01:14:36;98359.53;;;1.64;98.12
34674;BME280;20879;55.668;37.858;2023-04-01T01:17:13;98371.41;;;1.71;97.81
34674;BME280;20879;55.668;37.858;2023-04-01T01:20:03;98370.56;;;1.77;97.98
34674;BME280;20879;55.668;37.858;2023-04-01T01:23:02;98355.25;;;1.72;98.09
34674;BME280;20879;55.668;37.858;2023-04-01T01:25:41;98367.16;;;1.81;97.98
34674;BME280;20879;55.668;37.858;2023-04-01T01:28:31;98362.91;;;1.80;97.82
34674;BME280;20879;55.668;37.858;2023-04-01T01:31:17;98368.88;;;1.83;97.76
34674;BME280;20879;55.668;37.858;2023-04-01T01:33:58;98359.50;;;1.79;97.62
34674;BME280;20879;55.668;37.858;2023-04-01T01:36:33;98371.41;;;1.77;97.79
34674;BME280;20879;55.668;37.858;2023-04-01T01:39:08;98324.66;;;1.49;97.80
34674;BME280;20879;55.668;37.858;2023-04-01T01:41:39;98362.06;;;1.74;97.61
34674;BME280;20879;55.668;37.858;2023-04-01T01:44:12;98362.06;;;1.74;97.57
34674;BME280;20879;55.668;37.858;2023-04-01T01:46:48;98362.91;;;1.75;97.65
34674;BME280;20879;55.668;37.858;2023-04-01T01:49:19;98366.31;;;1.72;97.95
34674;BME280;20879;55.668;37.858;2023-04-01T01:51:51;98367.19;;;1.71;97.62
34674;BME280;20879;55.668;37.858;2023-04-01T01:54:20;98363.78;;;1.68;97.70
34674;BME280;20879;55.668;37.858;2023-04-01T01:56:52;98360.38;;;1.64;97.72
34674;BME280;20879;55.668;37.858;2023-04-01T01:59:25;98371.41;;;1.74;98.05
34674;BME280;20879;55.668;37.858;2023-04-01T02:01:56;98373.97;;;1.72;98.03
34674;BME280;20879;55.668;37.858;2023-04-01T02:04:26;98365.47;;;1.70;97.65
34674;BME280;20879;55.668;37.858;2023-04-01T02:07:01;98360.38;;;1.67;97.58
34674;BME280;20879;55.668;37.858;2023-04-01T02:09:38;98382.50;;;1.73;97.75
34674;BME280;20879;55.668;37.858;2023-04-01T02:12:09;98380.78;;;1.77;97.53
34674;BME280;20879;55.668;37.858;2023-04-01T02:14:44;98393.53;;;1.75;97.77
34674;BME280;20879;55.668;37.858;2023-04-01T02:17:17;98376.56;;;1.55;97.45
34674;BME280;20879;55.668;37.858;2023-04-01T02:19:47;98390.13;;;1.84;97.92
34674;BME280;20879;55.668;37.858;2023-04-01T02:22:23;98387.59;;;1.74;97.70
34674;BME280;20879;55.668;37.858;2023-04-01T02:24:58;98381.63;;;1.65;97.42
34674;BME280;20879;55.668;37.858;2023-04-01T02:27:30;98358.66;;;1.49;97.35
34674;BME280;20879;55.668;37.858;2023-04-01T02:30:00;98394.41;;;1.66;97.66
34674;BME280;20879;55.668;37.858;2023-04-01T02:32:31;98391.00;;;1.61;97.74
34674;BME280;20879;55.668;37.858;2023-04-01T02:35:03;98392.69;;;1.59;97.58
34674;BME280;20879;55.668;37.858;2023-04-01T02:37:35;98399.50;;;1.69;97.62
34674;BME280;20879;55.668;37.858;2023-04-01T02:40:13;98395.22;;;1.67;97.78
34674;BME280;20879;55.668;37.858;2023-04-01T02:42:44;98396.09;;;1.72;97.43
34674;BME280;20879;55.668;37.858;2023-04-01T02:45:14;98402.91;;;1.74;97.72
34674;BME280;20879;55.668;37.858;2023-04-01T02:47:43;98392.72;;;1.71;97.23
34674;BME280;20879;55.668;37.858;2023-04-01T02:50:12;98380.78;;;1.69;97.42
34674;BME280;20879;55.668;37.858;2023-04-01T02:52:44;98392.69;;;1.74;97.53
34674;BME280;20879;55.668;37.858;2023-04-01T02:55:13;98384.16;;;1.89;97.38
34674;BME280;20879;55.668;37.858;2023-04-01T02:57:42;98380.78;;;1.72;97.28
34674;BME280;20879;55.668;37.858;2023-04-01T03:00:13;98391.81;;;1.77;97.26
34674;BME280;20879;55.668;37.858;2023-04-01T03:02:43;98380.78;;;1.69;96.68
34674;BME280;20879;55.668;37.858;2023-04-01T03:05:12;98396.94;;;1.75;97.09
34674;BME280;20879;55.668;37.858;2023-04-01T03:07:46;98391.84;;;1.68;96.64
34674;BME280;20879;55.668;37.858;2023-04-01T03:10:16;98379.09;;;1.51;96.58
34674;BME280;20879;55.668;37.858;2023-04-01T03:12:46;98408.84;;;1.69;97.18
34674;BME280;20879;55.668;37.858;2023-04-01T03:15:15;98402.91;;;1.73;96.92
34674;BME280;20879;55.668;37.858;2023-04-01T03:17:44;98408.84;;;1.80;97.36
34674;BME280;20879;55.668;37.858;2023-04-01T03:20:19;98406.28;;;1.83;97.03
34674;BME280;20879;55.668;37.858;2023-04-01T03:22:51;98413.09;;;1.78;96.54
34674;BME280;20879;55.668;37.858;2023-04-01T03:25:21;98412.25;;;1.74;97.03
34674;BME280;20879;55.668;37.858;2023-04-01T03:27:50;98416.53;;;1.64;96.92
34674;BME280;20879;55.668;37.858;2023-04-01T03:30:23;98425.00;;;1.65;97.28
34674;BME280;20879;55.668;37.858;2023-04-01T03:32:53;98418.19;;;1.65;97.15
34674;BME280;20879;55.668;37.858;2023-04-01T03:35:22;98426.72;;;1.70;97.06
34674;BME280;20879;55.668;37.858;2023-04-01T03:37:59;98425.00;;;1.66;97.26
34674;BME280;20879;55.668;37.858;2023-04-01T03:40:29;98425.00;;;1.72;97.19
34674;BME280;20879;55.668;37.858;2023-04-01T03:42:59;98435.22;;;1.85;97.26
34674;BME280;20879;55.668;37.858;2023-04-01T03:45:36;98428.41;;;1.87;97.23
34674;BME280;20879;55.668;37.858;2023-04-01T03:48:17;98435.22;;;1.82;96.50
34674;BME280;20879;55.668;37.858;2023-04-01T03:50:47;98432.66;;;1.72;96.97
34674;BME280;20879;55.668;37.858;2023-04-01T03:53:19;98435.22;;;1.75;97.04
34674;BME280;20879;55.668;37.858;2023-04-01T03:56:04;98434.38;;;1.78;97.02
34674;BME280;20879;55.668;37.858;2023-04-01T03:58:35;98443.72;;;1.91;97.17
34674;BME280;20879;55.668;37.858;2023-04-01T04:01:13;98445.41;;;2.16;97.49
34674;BME280;20879;55.668;37.858;2023-04-01T04:03:43;98443.72;;;2.05;96.59
34674;BME280;20879;55.668;37.858;2023-04-01T04:06:13;98462.41;;;2.10;96.15
34674;BME280;20879;55.668;37.858;2023-04-01T04:08:45;98458.16;;;2.16;95.88
34674;BME280;20879;55.668;37.858;2023-04-01T04:11:14;98459.84;;;2.26;96.26
34674;BME280;20879;55.668;37.858;2023-04-01T04:13:44;98441.13;;;2.19;95.44
34674;BME280;20879;55.668;37.858;2023-04-01T04:16:16;98462.38;;;2.34;95.64
34674;BME280;20879;55.668;37.858;2023-04-01T04:18:52;98467.47;;;2.37;95.08
34674;BME280;20879;55.668;37.858;2023-04-01T04:21:26;98467.47;;;2.38;95.17
34674;BME280;20879;55.668;37.858;2023-04-01T04:23:58;98453.03;;;2.30;94.85
34674;BME280;20879;55.668;37.858;2023-04-01T04:26:36;98475.16;;;2.32;94.55
34674;BME280;20879;55.668;37.858;2023-04-01T04:29:06;98469.22;;;2.33;94.47
34674;BME280;20879;55.668;37.858;2023-04-01T04:31:35;98471.78;;;2.32;94.59
34674;BME280;20879;55.668;37.858;2023-04-01T04:34:06;98478.56;;;2.31;94.38
34674;BME280;20879;55.668;37.858;2023-04-01T04:36:36;98473.47;;;2.26;94.19
34674;BME280;20879;55.668;37.858;2023-04-01T04:39:12;98480.31;;;2.21;94.35
34674;BME280;20879;55.668;37.858;2023-04-01T04:41:42;98481.16;;;2.20;94.18
34674;BME280;20879;55.668;37.858;2023-04-01T04:44:12;98485.41;;;2.26;94.33
34674;BME280;20879;55.668;37.858;2023-04-01T04:46:42;98487.09;;;2.32;94.59
34674;BME280;20879;55.668;37.858;2023-04-01T04:49:14;98491.34;;;2.37;94.53
34674;BME280;20879;55.668;37.858;2023-04-01T04:51:43;98476.84;;;2.38;94.36
34674;BME280;20879;55.668;37.858;2023-04-01T04:54:17;98490.44;;;2.54;93.95
34674;BME280;20879;55.668;37.858;2023-04-01T04:56:53;98468.34;;;2.39;93.83
34674;BME280;20879;55.668;37.858;2023-04-01T04:59:32;98496.38;;;2.59;93.50
34674;BME280;20879;55.668;37.858;2023-04-01T05:02:08;98487.88;;;2.60;93.63
34674;BME280;20879;55.668;37.858;2023-04-01T05:04:38;98508.28;;;2.69;93.04
34674;BME280;20879;55.668;37.858;2023-04-01T05:07:10;98504.91;;;2.64;93.04
34674;BME280;20879;55.668;37.858;2023-04-01T05:09:42;98507.47;;;2.61;92.55
34674;BME280;20879;55.668;37.858;2023-04-01T05:12:12;98511.69;;;2.74;92.57
34674;BME280;20879;55.668;37.858;2023-04-01T05:15:08;98507.44;;;2.69;92.93
34674;BME280;20879;55.668;37.858;2023-04-01T05:17:38;98504.06;;;2.64;92.42
34674;BME280;20879;55.668;37.858;2023-04-01T05:20:11;98504.88;;;2.70;92.47
34674;BME280;20879;55.668;37.858;2023-04-01T05:22:46;98487.03;;;2.58;92.68
34674;BME280;20879;55.668;37.858;2023-04-01T05:25:18;98494.63;;;2.76;92.42
34674;BME280;20879;55.668;37.858;2023-04-01T05:27:52;98501.41;;;2.87;91.93
34674;BME280;20879;55.668;37.858;2023-04-01T05:30:22;98508.19;;;2.95;92.14
34674;BME280;20879;55.668;37.858;2023-04-01T05:33:22;98505.63;;;3.03;91.71
34674;BME280;20879;55.668;37.858;2023-04-01T05:35:57;98498.81;;;2.99;91.04
34674;BME280;20879;55.668;37.858;2023-04-01T05:38:34;98504.78;;;3.01;90.76
34674;BME280;20879;55.668;37.858;2023-04-01T05:41:07;98520.06;;;3.10;90.76
34674;BME280;20879;55.668;37.858;2023-04-01T05:43:41;98514.91;;;3.26;90.78
34674;BME280;20879;55.668;37.858;2023-04-01T05:46:29;98512.25;;;3.37;90.34
34674;BME280;20879;55.668;37.858;2023-04-01T05:49:19;98503.81;;;3.27;89.86
34674;BME280;20879;55.668;37.858;2023-04-01T05:51:50;98528.47;;;3.40;89.69
34674;BME280;20879;55.668;37.858;2023-04-01T05:54:20;98525.06;;;3.43;89.37
34674;BME280;20879;55.668;37.858;2023-04-01T05:56:51;98523.31;;;3.46;89.54
34674;BME280;20879;55.668;37.858;2023-04-01T05:59:21;98530.06;;;3.60;89.42
34674;BME280;20879;55.668;37.858;2023-04-01T06:01:51;98533.34;;;3.77;89.31
34674;BME280;20879;55.668;37.858;2023-04-01T06:04:20;98540.09;;;3.91;88.81
34674;BME280;20879;55.668;37.858;2023-04-01T06:06:50;98540.03;;;4.00;88.03
34674;BME280;20879;55.668;37.858;2023-04-01T06:09:25;98539.97;;;4.09;87.10
34674;BME280;20879;55.668;37.858;2023-04-01T06:12:35;98538.13;;;4.27;86.03
34674;BME280;20879;55.668;37.858;2023-04-01T06:15:15;98537.25;;;4.28;86.06
34674;BME280;20879;55.668;37.858;2023-04-01T06:17:59;98538.00;;;4.39;85.58
34674;BME280;20879;55.668;37.858;2023-04-01T06:20:37;98547.97;;;4.67;85.20
34674;BME280;20879;55.668;37.858;2023-04-01T06:23:19;98534.84;;;4.99;83.44
34674;BME280;20879;55.668;37.858;2023-04-01T06:26:09;98529.41;;;5.22;81.77
34674;BME280;20879;55.668;37.858;2023-04-01T06:29:11;98542.69;;;5.54;80.68
34674;BME280;20879;55.668;37.858;2023-04-01T06:32:11;98548.91;;;5.39;78.65
34674;BME280;20879;55.668;37.858;2023-04-01T06:35:00;98548.44;;;5.04;80.31
34674;BME280;20879;55.668;37.858;2023-04-01T06:37:46;98551.69;;;5.19;80.77
34674;BME280;20879;55.668;37.858;2023-04-01T06:40:43;98543.59;;;5.51;80.36
34674;BME280;20879;55.668;37.858;2023-04-01T06:43:21;98538.94;;;5.76;80.47
34674;BME280;20879;55.668;37.858;2023-04-01T06:46:25;98559.22;;;5.97;78.91
34674;BME280;20879;55.668;37.858;2023-04-01T06:49:33;98553.78;;;6.18;77.76
34674;BME280;20879;55.668;37.858;2023-04-01T06:52:26;98559.53;;;6.34;77.50
34674;BME280;20879;55.668;37.858;2023-04-01T06:55:46;98537.97;;;6.40;76.88
34674;BME280;20879;55.668;37.858;2023-04-01T06:58:57;98549.63;;;6.61;75.79
34674;BME280;20879;55.668;37.858;2023-04-01T07:01:34;98564.94;;;6.67;75.50
34674;BME280;20879;55.668;37.858;2023-04-01T07:04:08;98561.56;;;6.65;75.73
34674;BME280;20879;55.668;37.858;2023-04-01T07:06:43;98571.53;;;6.82;74.89
34674;BME280;20879;55.668;37.858;2023-04-01T07:09:19;98572.59;;;6.70;74.80
34674;BME280;20879;55.668;37.858;2023-04-01T07:12:15;98549.63;;;6.09;74.69
34674;BME280;20879;55.668;37.858;2023-04-01T07:15:14;98576.28;;;6.02;75.81
34674;BME280;20879;55.668;37.858;2023-04-01T07:17:52;98581.59;;;5.87;76.03
34674;BME280;20879;55.668;37.858;2023-04-01T07:20:26;98580.97;;;5.71;77.34
34674;BME280;20879;55.668;37.858;2023-04-01T07:23:01;98584.44;;;5.70;77.68
34674;BME280;20879;55.668;37.858;2023-04-01T07:26:21;98542.28;;;5.19;77.71
34674;BME280;20879;55.668;37.858;2023-04-01T07:28:53;98576.44;;;5.26;78.53
34674;BME280;20879;55.668;37.858;2023-04-01T07:34:55;98578.72;;;5.48;77.59
34674;BME280;20879;55.668;37.858;2023-04-01T07:37:33;98576.19;;;5.46;78.35
34674;BME280;20879;55.668;37.858;2023-04-01T07:40:18;98576.53;;;5.84;77.33
34674;BME280;20879;55.668;37.858;2023-04-01T07:43:09;98581.69;;;6.40;76.27
34674;BME280;20879;55.668;37.858;2023-04-01T07:45:54;98534.50;;;6.42;75.74
34674;BME280;20879;55.668;37.858;2023-04-01T07:48:41;98590.38;;;6.84;74.36
34674;BME280;20879;55.668;37.858;2023-04-01T07:51:17;98597.06;;;6.94;73.54
34674;BME280;20879;55.668;37.858;2023-04-01T07:54:01;98593.50;;;7.02;73.42
34674;BME280;20879;55.668;37.858;2023-04-01T07:56:41;98601.59;;;6.80;73.48
34674;BME280;20879;55.668;37.858;2023-04-01T07:59:24;98607.16;;;6.55;74.54
34674;BME280;20879;55.668;37.858;2023-04-01T08:02:10;98604.44;;;6.63;74.46
34674;BME280;20879;55.668;37.858;2023-04-01T08:04:47;98607.19;;;7.02;74.58
34674;BME280;20879;55.668;37.858;2023-04-01T08:07:24;98608.28;;;6.90;74.25
34674;BME280;20879;55.668;37.858;2023-04-01T08:10:22;98600.22;;;7.09;73.42
34674;BME280;20879;55.668;37.858;2023-04-01T08:13:24;98609.81;;;7.44;72.37
34674;BME280;20879;55.668;37.858;2023-04-01T08:16:19;98612.78;;;7.24;72.18
34674;BME280;20879;55.668;37.858;2023-04-01T08:19:01;98611.09;;;7.25;71.35
34674;BME280;20879;55.668;37.858;2023-04-01T08:21:39;98610.84;;;7.35;72.19
34674;BME280;20879;55.668;37.858;2023-04-01T08:24:19;98603.56;;;7.56;71.19
34674;BME280;20879;55.668;37.858;2023-04-01T08:27:06;98626.72;;;7.98;70.63
34674;BME280;20879;55.668;37.858;2023-04-01T08:29:44;98617.19;;;8.02;69.98
34674;BME280;20879;55.668;37.858;2023-04-01T08:32:18;98615.63;;;8.32;70.44
34674;BME280;20879;55.668;37.858;2023-04-01T08:34:57;98598.25;;;8.40;68.81
34674;BME280;20879;55.668;37.858;2023-04-01T08:37:37;98627.78;;;8.65;69.01
34674;BME280;20879;55.668;37.858;2023-04-01T08:40:46;98623.63;;;8.59;67.28
34674;BME280;20879;55.668;37.858;2023-04-01T08:47:16;98627.38;;;8.46;67.99
34674;BME280;20879;55.668;37.858;2023-04-01T08:53:11;98622.09;;;7.74;69.95
34674;BME280;20879;55.668;37.858;2023-04-01T08:56:01;98630.91;;;7.63;70.08
34674;BME280;20879;55.668;37.858;2023-04-01T09:02:03;98583.88;;;7.53;69.92
34674;BME280;20879;55.668;37.858;2023-04-01T09:05:36;98641.94;;;8.09;68.52
34674;BME280;20879;55.668;37.858;2023-04-01T09:08:31;98641.50;;;8.29;68.25
34674;BME280;20879;55.668;37.858;2023-04-01T09:11:27;98641.59;;;8.62;67.30
34674;BME280;20879;55.668;37.858;2023-04-01T09:17:29;98619.00;;;8.34;66.67
34674;BME280;20879;55.668;37.858;2023-04-01T09:20:14;98635.31;;;8.36;67.34
34674;BME280;20879;55.668;37.858;2023-04-01T09:23:00;98633.25;;;8.52;67.21
34674;BME280;20879;55.668;37.858;2023-04-01T09:25:54;98627.50;;;8.39;67.26
34674;BME280;20879;55.668;37.858;2023-04-01T09:28:33;98636.16;;;8.74;67.49
34674;BME280;20879;55.668;37.858;2023-04-01T09:31:17;98643.41;;;8.93;65.13
34674;BME280;20879;55.668;37.858;2023-04-01T09:34:53;98654.47;;;9.31;64.31
34674;BME280;20879;55.668;37.858;2023-04-01T09:37:35;98645.66;;;9.38;63.62
34674;BME280;20879;55.668;37.858;2023-04-01T09:40:16;98655.47;;;9.27;63.69
34674;BME280;20879;55.668;37.858;2023-04-01T09:43:25;98656.50;;;9.20;63.81
34674;BME280;20879;55.668;37.858;2023-04-01T09:46:09;98655.38;;;8.97;64.10
34674;BME280;20879;55.668;37.858;2023-04-01T09:51:51;98658.59;;;9.05;61.45
34674;BME280;20879;55.668;37.858;2023-04-01T09:54:36;98658.97;;;9.24;62.28
34674;BME280;20879;55.668;37.858;2023-04-01T10:01:08;98668.56;;;9.52;60.48
34674;BME280;20879;55.668;37.858;2023-04-01T10:04:12;98677.00;;;9.26;61.17
34674;BME280;20879;55.668;37.858;2023-04-01T10:07:06;98675.13;;;8.98;61.64
34674;BME280;20879;55.668;37.858;2023-04-01T10:10:23;98683.84;;;8.94;61.34
34674;BME280;20879;55.668;37.858;2023-04-01T10:13:26;98679.03;;;8.80;62.10
34674;BME280;20879;55.668;37.858;2023-04-01T10:26:03;98695.44;;;8.38;61.46
34674;BME280;20879;55.668;37.858;2023-04-01T10:28:55;98691.72;;;8.13;62.03
34674;BME280;20879;55.668;37.858;2023-04-01T10:31:47;98668.28;;;7.83;62.56
34674;BME280;20879;55.668;37.858;2023-04-01T10:38:07;98694.25;;;7.74;62.51
34674;BME280;20879;55.668;37.858;2023-04-01T10:44:48;98706.59;;;7.58;62.55
34674;BME280;20879;55.668;37.858;2023-04-01T10:48:04;98699.69;;;7.58;62.15
34674;BME280;20879;55.668;37.858;2023-04-01T10:51:01;98707.44;;;7.57;61.36
34674;BME280;20879;55.668;37.858;2023-04-01T10:54:16;98701.53;;;7.53;62.56
34674;BME280;20879;55.668;37.858;2023-04-01T10:57:44;98701.75;;;7.41;61.37
34674;BME280;20879;55.668;37.858;2023-04-01T11:01:03;98712.09;;;7.38;61.19
34674;BME280;20879;55.668;37.858;2023-04-01T11:17:03;98708.84;;;7.29;61.79
34674;BME280;20879;55.668;37.858;2023-04-01T11:20:13;98719.72;;;7.45;61.24
34674;BME280;20879;55.668;37.858;2023-04-01T11:23:08;98714.28;;;7.59;60.81
34674;BME280;20879;55.668;37.858;2023-04-01T11:26:04;98707.38;;;7.60;60.96
34674;BME280;20879;55.668;37.858;2023-04-01T11:29:06;98706.56;;;7.59;61.01
34674;BME280;20879;55.668;37.858;2023-04-01T11:31:47;98698.81;;;7.59;60.14
34674;BME280;20879;55.668;37.858;2023-04-01T11:37:34;98714.13;;;7.67;58.91
34674;BME280;20879;55.668;37.858;2023-04-01T11:40:37;98708.03;;;7.71;59.17
34674;BME280;20879;55.668;37.858;2023-04-01T11:43:34;98714.00;;;7.75;59.26
34674;BME280;20879;55.668;37.858;2023-04-01T11:46:27;98711.09;;;7.90;59.36
34674;BME280;20879;55.668;37.858;2023-04-01T11:49:07;98708.09;;;8.10;59.23
34674;BME280;20879;55.668;37.858;2023-04-01T11:52:24;98713.75;;;8.28;58.49
34674;BME280;20879;55.668;37.858;2023-04-01T11:55:23;98711.00;;;8.35;57.96
34674;BME280;20879;55.668;37.858;2023-04-01T12:00:59;98717.91;;;8.72;57.04
34674;BME280;20879;55.668;37.858;2023-04-01T12:03:50;98713.94;;;8.95;54.89
34674;BME280;20879;55.668;37.858;2023-04-01T12:06:29;98731.97;;;9.31;54.66
34674;BME280;20879;55.668;37.858;2023-04-01T12:09:12;98732.72;;;9.68;54.76
34674;BME280;20879;55.668;37.858;2023-04-01T12:11:50;98733.38;;;9.76;54.33
34674;BME280;20879;55.668;37.858;2023-04-01T12:14:30;98735.59;;;9.90;55.64
34674;BME280;20879;55.668;37.858;2023-04-01T12:17:08;98742.25;;;9.97;54.78
34674;BME280;20879;55.668;37.858;2023-04-01T12:19:44;98728.75;;;10.17;54.52
34674;BME280;20879;55.668;37.858;2023-04-01T12:22:31;98723.16;;;10.32;53.62
34674;BME280;20879;55.668;37.858;2023-04-01T12:25:17;98717.19;;;10.29;52.79
34674;BME280;20879;55.668;37.858;2023-04-01T12:28:10;98720.03;;;10.21;53.47
34674;BME280;20879;55.668;37.858;2023-04-01T12:30:51;98698.69;;;10.13;53.62
34674;BME280;20879;55.668;37.858;2023-04-01T12:33:36;98725.53;;;10.40;53.41
34674;BME280;20879;55.668;37.858;2023-04-01T12:36:19;98734.06;;;10.42;53.55
34674;BME280;20879;55.668;37.858;2023-04-01T12:39:14;98727.13;;;10.44;53.50
34674;BME280;20879;55.668;37.858;2023-04-01T12:41:54;98731.75;;;10.33;54.21
34674;BME280;20879;55.668;37.858;2023-04-01T12:44:47;98736.66;;;10.12;54.54
34674;BME280;20879;55.668;37.858;2023-04-01T12:52:38;98736.84;;;10.06;53.64
34674;BME280;20879;55.668;37.858;2023-04-01T12:55:30;98732.28;;;9.85;54.28
34674;BME280;20879;55.668;37.858;2023-04-01T13:04:46;98724.03;;;9.39;53.72
34674;BME280;20879;55.668;37.858;2023-04-01T13:07:29;98760.53;;;9.59;53.78
34674;BME280;20879;55.668;37.858;2023-04-01T13:10:12;98766.00;;;9.80;53.61
34674;BME280;20879;55.668;37.858;2023-04-01T13:15:50;98751.78;;;9.31;54.77
34674;BME280;20879;55.668;37.858;2023-04-01T13:18:29;98762.13;;;9.31;55.11
34674;BME280;20879;55.668;37.858;2023-04-01T13:21:07;98767.44;;;9.24;55.36
34674;BME280;20879;55.668;37.858;2023-04-01T13:23:51;98769.91;;;9.29;55.31
34674;BME280;20879;55.668;37.858;2023-04-01T13:26:29;98741.00;;;9.15;55.04
34674;BME280;20879;55.668;37.858;2023-04-01T13:29:04;98764.03;;;9.24;54.44
34674;BME280;20879;55.668;37.858;2023-04-01T13:31:47;98763.38;;;9.16;54.72
34674;BME280;20879;55.668;37.858;2023-04-01T13:34:30;98788.97;;;9.25;55.12
34674;BME280;20879;55.668;37.858;2023-04-01T13:37:15;98769.69;;;9.04;55.07
34674;BME280;20879;55.668;37.858;2023-04-01T13:40:00;98789.31;;;9.11;54.92
34674;BME280;20879;55.668;37.858;2023-04-01T13:42:39;98794.94;;;8.91;55.71
34674;BME280;20879;55.668;37.858;2023-04-01T13:45:16;98783.34;;;8.71;55.95
34674;BME280;20879;55.668;37.858;2023-04-01T13:51:10;98792.56;;;8.82;56.66
34674;BME280;20879;55.668;37.858;2023-04-01T13:53:58;98791.75;;;8.80;57.11
34674;BME280;20879;55.668;37.858;2023-04-01T13:56:46;98775.19;;;8.51;56.92
34674;BME280;20879;55.668;37.858;2023-04-01T13:59:37;98813.59;;;8.65;57.43
34674;BME280;20879;55.668;37.858;2023-04-01T14:02:28;98764.53;;;8.24;57.95
34674;BME280;20879;55.668;37.858;2023-04-01T14:05:19;98798.78;;;8.31;58.58
34674;BME280;20879;55.668;37.858;2023-04-01T14:08:23;98814.50;;;8.18;59.49
34674;BME280;20879;55.668;37.858;2023-04-01T14:11:06;98818.13;;;8.10;60.20
34674;BME280;20879;55.668;37.858;2023-04-01T14:13:46;98819.06;;;8.05;60.39
34674;BME280;20879;55.668;37.858;2023-04-01T14:19:35;98815.72;;;8.00;61.75
34674;BME280;20879;55.668;37.858;2023-04-01T14:22:16;98808.25;;;7.86;61.98
34674;BME280;20879;55.668;37.858;2023-04-01T14:25:02;98823.53;;;7.96;62.46
34674;BME280;20879;55.668;37.858;2023-04-01T14:27:46;98820.22;;;7.91;62.72
34674;BME280;20879;55.668;37.858;2023-04-01T14:30:33;98815.19;;;7.83;62.87
34674;BME280;20879;55.668;37.858;2023-04-01T14:33:23;98808.44;;;7.76;64.09
34674;BME280;20879;55.668;37.858;2023-04-01T14:36:18;98805.19;;;7.66;64.51
34674;BME280;20879;55.668;37.858;2023-04-01T14:39:04;98829.09;;;7.74;64.17
34674;BME280;20879;55.668;37.858;2023-04-01T14:41:45;98828.38;;;7.66;64.62
34674;BME280;20879;55.668;37.858;2023-04-01T14:47:42;98836.84;;;7.73;65.60
34674;BME280;20879;55.668;37.858;2023-04-01T14:50:17;98840.50;;;7.61;66.10
34674;BME280;20879;55.668;37.858;2023-04-01T14:52:57;98847.31;;;7.63;66.49
34674;BME280;20879;55.668;37.858;2023-04-01T14:55:31;98843.91;;;7.61;66.83
34674;BME280;20879;55.668;37.858;2023-04-01T14:58:11;98854.22;;;7.61;67.05
34674;BME280;20879;55.668;37.858;2023-04-01T15:00:51;98853.44;;;7.56;67.31
34674;BME280;20879;55.668;37.858;2023-04-01T15:03:25;98861.00;;;7.67;67.32
34674;BME280;20879;55.668;37.858;2023-04-01T15:09:18;98860.38;;;7.52;67.62
34674;BME280;20879;55.668;37.858;2023-04-01T15:11:57;98865.56;;;7.49;68.09
34674;BME280;20879;55.668;37.858;2023-04-01T15:17:51;98855.47;;;7.39;68.57
34674;BME280;20879;55.668;37.858;2023-04-01T15:20:52;98849.56;;;7.30;70.18
34674;BME280;20879;55.668;37.858;2023-04-01T15:23:34;98823.34;;;7.05;70.17
34674;BME280;20879;55.668;37.858;2023-04-01T15:26:21;98844.56;;;7.21;70.80
34674;BME280;20879;55.668;37.858;2023-04-01T15:29:11;98842.88;;;7.18;71.19
34674;BME280;20879;55.668;37.858;2023-04-01T15:31:51;98883.00;;;7.32;71.23
34674;BME280;20879;55.668;37.858;2023-04-01T15:34:32;98852.41;;;7.15;72.48
34674;BME280;20879;55.668;37.858;2023-04-01T15:37:13;98889.91;;;7.31;72.83
34674;BME280;20879;55.668;37.858;2023-04-01T15:39:55;98888.19;;;7.30;73.29
34674;BME280;20879;55.668;37.858;2023-04-01T15:42:47;98890.00;;;7.25;73.97
34674;BME280;20879;55.668;37.858;2023-04-01T15:45:31;98889.19;;;7.20;73.65